sensor_id;sensor_type;location;lat;lon;timestamp;P1;durP1;ratioP1;P2;durP2;ratioP2
28252;SDS011;15515;45.588;5.276;2022-07-30T00:01:09;4.35;;;3.67;;
28252;SDS011;15515;45.588;5.276;2022-07-30T00:03:36;5.15;;;3.67;;
28252;SDS011;15515;45.588;5.276;2022-07-30T00:06:04;4.78;;;3.85;;
28252;SDS011;15515;45.588;5.276;2022-07-30T00:08:31;20.25;;;15.70;;
28252;SDS011;15515;45.588;5.276;2022-07-30T00:10:59;31.92;;;22.02;;
28252;SDS011;15515;45.588;5.276;2022-07-30T00:13:26;24.60;;;17.42;;
28252;SDS011;15515;45.588;5.276;2022-07-30T00:15:54;22.98;;;13.35;;
28252;SDS011;15515;45.588;5.276;2022-07-30T00:18:21;12.75;;;8.55;;
28252;SDS011;15515;45.588;5.276;2022-07-30T00:20:49;8.40;;;5.97;;
28252;SDS011;15515;45.588;5.276;2022-07-30T00:23:16;6.70;;;4.50;;
28252;SDS011;15515;45.588;5.276;2022-07-30T00:25:43;4.50;;;3.85;;
28252;SDS011;15515;45.588;5.276;2022-07-30T00:28:11;7.35;;;3.92;;
28252;SDS011;15515;45.588;5.276;2022-07-30T00:30:38;4.93;;;3.60;;
28252;SDS011;15515;45.588;5.276;2022-07-30T00:33:06;4.90;;;3.63;;
28252;SDS011;15515;45.588;5.276;2022-07-30T00:35:34;6.30;;;3.38;;
28252;SDS011;15515;45.588;5.276;2022-07-30T00:38:02;6.57;;;3.72;;
28252;SDS011;15515;45.588;5.276;2022-07-30T00:40:29;5.80;;;4.07;;
28252;SDS011;15515;45.588;5.276;2022-07-30T00:42:59;4.10;;;3.20;;
28252;SDS011;15515;45.588;5.276;2022-07-30T00:45:26;5.90;;;3.67;;
28252;SDS011;15515;45.588;5.276;2022-07-30T00:47:54;4.75;;;3.70;;
28252;SDS011;15515;45.588;5.276;2022-07-30T00:50:22;9.48;;;3.83;;
28252;SDS011;15515;45.588;5.276;2022-07-30T00:52:49;5.90;;;4.32;;
28252;SDS011;15515;45.588;5.276;2022-07-30T00:55:16;8.02;;;3.80;;
28252;SDS011;15515;45.588;5.276;2022-07-30T00:57:45;7.40;;;3.65;;
28252;SDS011;15515;45.588;5.276;2022-07-30T01:00:13;7.25;;;3.83;;
28252;SDS011;15515;45.588;5.276;2022-07-30T01:02:42;5.80;;;3.83;;
28252;SDS011;15515;45.588;5.276;2022-07-30T01:05:09;9.18;;;4.03;;
28252;SDS011;15515;45.588;5.276;2022-07-30T01:07:37;9.32;;;4.38;;
28252;SDS011;15515;45.588;5.276;2022-07-30T01:10:05;11.75;;;4.85;;
28252;SDS011;15515;45.588;5.276;2022-07-30T01:12:34;9.00;;;4.70;;
28252;SDS011;15515;45.588;5.276;2022-07-30T01:15:03;10.23;;;4.15;;
28252;SDS011;15515;45.588;5.276;2022-07-30T01:17:33;7.50;;;4.10;;
28252;SDS011;15515;45.588;5.276;2022-07-30T01:20:04;9.77;;;4.68;;
28252;SDS011;15515;45.588;5.276;2022-07-30T01:28:14;12.02;;;3.80;;
28252;SDS011;15515;45.588;5.276;2022-07-30T01:30:45;6.03;;;4.00;;
28252;SDS011;15515;45.588;5.276;2022-07-30T01:33:14;9.07;;;4.20;;
28252;SDS011;15515;45.588;5.276;2022-07-30T01:35:45;6.93;;;4.10;;
28252;SDS011;15515;45.588;5.276;2022-07-30T01:38:14;8.13;;;4.45;;
28252;SDS011;15515;45.588;5.276;2022-07-30T01:40:52;10.00;;;4.50;;
28252;SDS011;15515;45.588;5.276;2022-07-30T01:43:23;7.15;;;4.20;;
28252;SDS011;15515;45.588;5.276;2022-07-30T01:45:52;7.82;;;4.70;;
28252;SDS011;15515;45.588;5.276;2022-07-30T01:48:22;6.97;;;4.30;;
28252;SDS011;15515;45.588;5.276;2022-07-30T01:50:52;11.90;;;4.82;;
28252;SDS011;15515;45.588;5.276;2022-07-30T01:53:24;9.52;;;4.80;;
28252;SDS011;15515;45.588;5.276;2022-07-30T01:55:56;6.80;;;4.60;;
28252;SDS011;15515;45.588;5.276;2022-07-30T01:58:26;9.98;;;5.10;;
28252;SDS011;15515;45.588;5.276;2022-07-30T02:01:10;9.80;;;4.82;;
28252;SDS011;15515;45.588;5.276;2022-07-30T02:03:37;7.97;;;5.07;;
28252;SDS011;15515;45.588;5.276;2022-07-30T02:06:12;9.50;;;4.90;;
28252;SDS011;15515;45.588;5.276;2022-07-30T02:11:25;8.93;;;4.65;;
28252;SDS011;15515;45.588;5.276;2022-07-30T02:14:23;10.60;;;4.20;;
28252;SDS011;15515;45.588;5.276;2022-07-30T02:16:55;5.75;;;4.03;;
28252;SDS011;15515;45.588;5.276;2022-07-30T02:19:29;6.85;;;4.13;;
28252;SDS011;15515;45.588;5.276;2022-07-30T02:22:08;7.30;;;4.13;;
28252;SDS011;15515;45.588;5.276;2022-07-30T02:24:40;6.28;;;3.88;;
28252;SDS011;15515;45.588;5.276;2022-07-30T02:27:13;7.68;;;4.00;;
28252;SDS011;15515;45.588;5.276;2022-07-30T02:29:44;6.47;;;4.13;;
28252;SDS011;15515;45.588;5.276;2022-07-30T02:32:14;5.20;;;3.88;;
28252;SDS011;15515;45.588;5.276;2022-07-30T02:34:47;7.53;;;4.15;;
28252;SDS011;15515;45.588;5.276;2022-07-30T02:37:17;6.32;;;4.25;;
28252;SDS011;15515;45.588;5.276;2022-07-30T02:39:49;7.18;;;4.35;;
28252;SDS011;15515;45.588;5.276;2022-07-30T02:42:19;6.32;;;4.30;;
28252;SDS011;15515;45.588;5.276;2022-07-30T02:44:48;5.45;;;4.40;;
28252;SDS011;15515;45.588;5.276;2022-07-30T02:49:54;11.10;;;4.80;;
28252;SDS011;15515;45.588;5.276;2022-07-30T02:52:25;5.88;;;4.80;;
28252;SDS011;15515;45.588;5.276;2022-07-30T02:54:55;7.32;;;5.20;;
28252;SDS011;15515;45.588;5.276;2022-07-30T02:57:24;6.93;;;4.47;;
28252;SDS011;15515;45.588;5.276;2022-07-30T02:59:56;8.00;;;4.97;;
28252;SDS011;15515;45.588;5.276;2022-07-30T03:02:27;7.60;;;4.40;;
28252;SDS011;15515;45.588;5.276;2022-07-30T03:04:56;7.05;;;4.68;;
28252;SDS011;15515;45.588;5.276;2022-07-30T03:07:26;7.40;;;4.55;;
28252;SDS011;15515;45.588;5.276;2022-07-30T03:09:55;5.75;;;4.80;;
28252;SDS011;15515;45.588;5.276;2022-07-30T03:12:35;7.25;;;4.65;;
28252;SDS011;15515;45.588;5.276;2022-07-30T03:15:04;6.63;;;4.40;;
28252;SDS011;15515;45.588;5.276;2022-07-30T03:17:37;5.20;;;4.70;;
28252;SDS011;15515;45.588;5.276;2022-07-30T03:20:25;5.55;;;4.82;;
28252;SDS011;15515;45.588;5.276;2022-07-30T03:22:58;7.50;;;4.72;;
28252;SDS011;15515;45.588;5.276;2022-07-30T03:25:31;7.20;;;4.90;;
28252;SDS011;15515;45.588;5.276;2022-07-30T03:28:01;9.93;;;4.82;;
28252;SDS011;15515;45.588;5.276;2022-07-30T03:30:32;6.60;;;4.43;;
28252;SDS011;15515;45.588;5.276;2022-07-30T03:33:02;6.68;;;4.82;;
28252;SDS011;15515;45.588;5.276;2022-07-30T03:35:34;7.32;;;4.40;;
28252;SDS011;15515;45.588;5.276;2022-07-30T03:38:06;5.90;;;4.07;;
28252;SDS011;15515;45.588;5.276;2022-07-30T03:40:38;7.10;;;3.75;;
28252;SDS011;15515;45.588;5.276;2022-07-30T03:43:10;5.10;;;4.10;;
28252;SDS011;15515;45.588;5.276;2022-07-30T03:45:41;5.18;;;4.32;;
28252;SDS011;15515;45.588;5.276;2022-07-30T03:48:15;6.63;;;4.53;;
28252;SDS011;15515;45.588;5.276;2022-07-30T03:50:45;4.43;;;4.03;;
28252;SDS011;15515;45.588;5.276;2022-07-30T03:53:16;6.60;;;4.18;;
28252;SDS011;15515;45.588;5.276;2022-07-30T03:56:11;6.05;;;4.05;;
28252;SDS011;15515;45.588;5.276;2022-07-30T03:59:09;6.07;;;4.53;;
28252;SDS011;15515;45.588;5.276;2022-07-30T04:01:39;8.18;;;4.20;;
28252;SDS011;15515;45.588;5.276;2022-07-30T04:04:24;7.85;;;4.25;;
28252;SDS011;15515;45.588;5.276;2022-07-30T04:06:56;5.38;;;3.60;;
28252;SDS011;15515;45.588;5.276;2022-07-30T04:09:24;8.43;;;4.65;;
28252;SDS011;15515;45.588;5.276;2022-07-30T04:11:52;5.97;;;4.50;;
28252;SDS011;15515;45.588;5.276;2022-07-30T04:14:37;6.63;;;4.68;;
28252;SDS011;15515;45.588;5.276;2022-07-30T04:19:48;7.03;;;5.00;;
28252;SDS011;15515;45.588;5.276;2022-07-30T04:22:22;6.40;;;4.63;;
28252;SDS011;15515;45.588;5.276;2022-07-30T04:24:59;8.02;;;4.55;;
28252;SDS011;15515;45.588;5.276;2022-07-30T04:27:30;7.65;;;4.43;;
28252;SDS011;15515;45.588;5.276;2022-07-30T04:30:12;6.07;;;4.47;;
28252;SDS011;15515;45.588;5.276;2022-07-30T04:32:40;7.47;;;4.40;;
28252;SDS011;15515;45.588;5.276;2022-07-30T04:35:31;6.57;;;4.60;;
28252;SDS011;15515;45.588;5.276;2022-07-30T04:38:13;7.95;;;4.70;;
28252;SDS011;15515;45.588;5.276;2022-07-30T04:40:47;5.47;;;4.70;;
28252;SDS011;15515;45.588;5.276;2022-07-30T04:43:15;12.20;;;5.95;;
28252;SDS011;15515;45.588;5.276;2022-07-30T04:45:43;12.13;;;9.10;;
28252;SDS011;15515;45.588;5.276;2022-07-30T04:48:12;17.15;;;10.27;;
28252;SDS011;15515;45.588;5.276;2022-07-30T04:50:58;19.98;;;11.25;;
28252;SDS011;15515;45.588;5.276;2022-07-30T04:53:28;14.70;;;9.88;;
28252;SDS011;15515;45.588;5.276;2022-07-30T04:55:59;16.23;;;10.73;;
28252;SDS011;15515;45.588;5.276;2022-07-30T04:58:30;17.00;;;10.02;;
28252;SDS011;15515;45.588;5.276;2022-07-30T05:01:01;13.68;;;9.07;;
28252;SDS011;15515;45.588;5.276;2022-07-30T05:03:30;14.95;;;8.23;;
28252;SDS011;15515;45.588;5.276;2022-07-30T05:06:00;12.23;;;7.65;;
28252;SDS011;15515;45.588;5.276;2022-07-30T05:08:33;11.50;;;6.82;;
28252;SDS011;15515;45.588;5.276;2022-07-30T05:11:04;9.23;;;6.38;;
28252;SDS011;15515;45.588;5.276;2022-07-30T05:13:33;10.88;;;6.60;;
28252;SDS011;15515;45.588;5.276;2022-07-30T05:16:02;10.07;;;6.57;;
28252;SDS011;15515;45.588;5.276;2022-07-30T05:18:30;9.23;;;6.70;;
28252;SDS011;15515;45.588;5.276;2022-07-30T05:21:01;11.23;;;7.25;;
28252;SDS011;15515;45.588;5.276;2022-07-30T05:23:34;12.82;;;6.63;;
28252;SDS011;15515;45.588;5.276;2022-07-30T05:26:19;9.82;;;6.93;;
28252;SDS011;15515;45.588;5.276;2022-07-30T05:28:50;11.45;;;6.68;;
28252;SDS011;15515;45.588;5.276;2022-07-30T05:31:24;10.05;;;6.53;;
28252;SDS011;15515;45.588;5.276;2022-07-30T05:33:59;13.30;;;7.57;;
28252;SDS011;15515;45.588;5.276;2022-07-30T05:36:35;10.77;;;8.18;;
28252;SDS011;15515;45.588;5.276;2022-07-30T05:39:03;14.55;;;7.75;;
28252;SDS011;15515;45.588;5.276;2022-07-30T05:42:03;14.35;;;7.90;;
28252;SDS011;15515;45.588;5.276;2022-07-30T05:44:38;10.73;;;6.32;;
28252;SDS011;15515;45.588;5.276;2022-07-30T05:47:06;7.82;;;6.18;;
28252;SDS011;15515;45.588;5.276;2022-07-30T05:49:36;9.20;;;5.85;;
28252;SDS011;15515;45.588;5.276;2022-07-30T05:52:07;10.73;;;6.50;;
28252;SDS011;15515;45.588;5.276;2022-07-30T05:54:38;11.40;;;6.28;;
28252;SDS011;15515;45.588;5.276;2022-07-30T05:57:36;15.60;;;7.32;;
28252;SDS011;15515;45.588;5.276;2022-07-30T06:00:04;11.93;;;8.10;;
28252;SDS011;15515;45.588;5.276;2022-07-30T06:02:42;9.35;;;6.80;;
28252;SDS011;15515;45.588;5.276;2022-07-30T06:05:29;9.45;;;6.70;;
28252;SDS011;15515;45.588;5.276;2022-07-30T06:08:00;8.50;;;6.18;;
28252;SDS011;15515;45.588;5.276;2022-07-30T06:10:29;10.27;;;6.07;;
28252;SDS011;15515;45.588;5.276;2022-07-30T06:12:57;11.40;;;5.97;;
28252;SDS011;15515;45.588;5.276;2022-07-30T06:15:25;7.63;;;5.45;;
28252;SDS011;15515;45.588;5.276;2022-07-30T06:17:53;7.85;;;5.75;;
28252;SDS011;15515;45.588;5.276;2022-07-30T06:20:34;9.45;;;6.25;;
28252;SDS011;15515;45.588;5.276;2022-07-30T06:23:20;9.45;;;5.97;;
28252;SDS011;15515;45.588;5.276;2022-07-30T06:26:18;9.63;;;6.03;;
28252;SDS011;15515;45.588;5.276;2022-07-30T06:28:46;8.82;;;4.78;;
28252;SDS011;15515;45.588;5.276;2022-07-30T06:31:23;8.35;;;4.65;;
28252;SDS011;15515;45.588;5.276;2022-07-30T06:33:52;5.05;;;4.07;;
28252;SDS011;15515;45.588;5.276;2022-07-30T06:36:19;7.93;;;4.10;;
28252;SDS011;15515;45.588;5.276;2022-07-30T06:38:53;5.68;;;4.13;;
28252;SDS011;15515;45.588;5.276;2022-07-30T06:41:33;12.02;;;4.60;;
28252;SDS011;15515;45.588;5.276;2022-07-30T06:44:01;12.18;;;4.18;;
28252;SDS011;15515;45.588;5.276;2022-07-30T06:46:47;13.00;;;6.40;;
28252;SDS011;15515;45.588;5.276;2022-07-30T06:49:17;6.60;;;4.00;;
28252;SDS011;15515;45.588;5.276;2022-07-30T06:51:45;7.85;;;3.60;;
28252;SDS011;15515;45.588;5.276;2022-07-30T06:54:13;11.52;;;3.88;;
28252;SDS011;15515;45.588;5.276;2022-07-30T06:57:00;10.25;;;3.70;;
28252;SDS011;15515;45.588;5.276;2022-07-30T06:59:28;6.03;;;3.15;;
28252;SDS011;15515;45.588;5.276;2022-07-30T07:02:15;7.25;;;3.45;;
28252;SDS011;15515;45.588;5.276;2022-07-30T07:05:00;9.25;;;2.97;;
28252;SDS011;15515;45.588;5.276;2022-07-30T07:07:28;10.95;;;3.00;;
28252;SDS011;15515;45.588;5.276;2022-07-30T07:10:07;7.95;;;2.70;;
28252;SDS011;15515;45.588;5.276;2022-07-30T07:12:43;12.20;;;2.88;;
28252;SDS011;15515;45.588;5.276;2022-07-30T07:15:14;6.32;;;2.58;;
28252;SDS011;15515;45.588;5.276;2022-07-30T07:17:42;4.82;;;2.30;;
28252;SDS011;15515;45.588;5.276;2022-07-30T07:20:32;2.97;;;2.28;;
28252;SDS011;15515;45.588;5.276;2022-07-30T07:23:03;8.05;;;2.95;;
28252;SDS011;15515;45.588;5.276;2022-07-30T07:25:34;4.97;;;2.58;;
28252;SDS011;15515;45.588;5.276;2022-07-30T07:28:01;6.97;;;2.45;;
28252;SDS011;15515;45.588;5.276;2022-07-30T07:30:29;3.70;;;2.50;;
28252;SDS011;15515;45.588;5.276;2022-07-30T07:32:58;8.30;;;3.30;;
28252;SDS011;15515;45.588;5.276;2022-07-30T07:35:26;4.53;;;2.47;;
28252;SDS011;15515;45.588;5.276;2022-07-30T07:37:54;5.90;;;2.05;;
28252;SDS011;15515;45.588;5.276;2022-07-30T07:40:24;8.45;;;2.90;;
28252;SDS011;15515;45.588;5.276;2022-07-30T07:42:52;5.72;;;2.42;;
28252;SDS011;15515;45.588;5.276;2022-07-30T07:45:20;4.13;;;2.40;;
28252;SDS011;15515;45.588;5.276;2022-07-30T07:47:57;4.00;;;2.30;;
28252;SDS011;15515;45.588;5.276;2022-07-30T07:50:51;6.90;;;2.60;;
28252;SDS011;15515;45.588;5.276;2022-07-30T07:53:24;7.18;;;2.65;;
28252;SDS011;15515;45.588;5.276;2022-07-30T07:55:52;7.00;;;2.35;;
28252;SDS011;15515;45.588;5.276;2022-07-30T07:58:20;7.13;;;2.58;;
28252;SDS011;15515;45.588;5.276;2022-07-30T08:00:48;6.15;;;2.50;;
28252;SDS011;15515;45.588;5.276;2022-07-30T08:03:18;4.70;;;2.45;;
28252;SDS011;15515;45.588;5.276;2022-07-30T08:05:46;3.83;;;2.63;;
28252;SDS011;15515;45.588;5.276;2022-07-30T08:08:37;7.53;;;2.70;;
28252;SDS011;15515;45.588;5.276;2022-07-30T08:11:23;6.25;;;2.30;;
28252;SDS011;15515;45.588;5.276;2022-07-30T08:14:22;4.03;;;2.20;;
28252;SDS011;15515;45.588;5.276;2022-07-30T08:17:10;5.57;;;2.30;;
28252;SDS011;15515;45.588;5.276;2022-07-30T08:19:59;9.20;;;2.75;;
28252;SDS011;15515;45.588;5.276;2022-07-30T08:22:27;9.25;;;2.30;;
28252;SDS011;15515;45.588;5.276;2022-07-30T08:24:54;8.18;;;2.50;;
28252;SDS011;15515;45.588;5.276;2022-07-30T08:27:21;7.80;;;2.53;;
28252;SDS011;15515;45.588;5.276;2022-07-30T08:29:49;3.20;;;2.08;;
28252;SDS011;15515;45.588;5.276;2022-07-30T08:32:16;3.83;;;2.00;;
28252;SDS011;15515;45.588;5.276;2022-07-30T08:34:44;5.63;;;2.80;;
28252;SDS011;15515;45.588;5.276;2022-07-30T08:37:12;9.57;;;4.53;;
28252;SDS011;15515;45.588;5.276;2022-07-30T08:39:40;2.33;;;2.15;;
28252;SDS011;15515;45.588;5.276;2022-07-30T08:42:07;4.80;;;2.03;;
28252;SDS011;15515;45.588;5.276;2022-07-30T08:44:35;5.50;;;2.05;;
28252;SDS011;15515;45.588;5.276;2022-07-30T08:47:04;4.00;;;2.03;;
28252;SDS011;15515;45.588;5.276;2022-07-30T08:49:53;4.20;;;2.33;;
28252;SDS011;15515;45.588;5.276;2022-07-30T08:54:58;6.90;;;2.25;;
28252;SDS011;15515;45.588;5.276;2022-07-30T08:57:28;7.90;;;2.20;;
28252;SDS011;15515;45.588;5.276;2022-07-30T08:59:59;3.78;;;1.90;;
28252;SDS011;15515;45.588;5.276;2022-07-30T09:02:28;3.45;;;2.03;;
28252;SDS011;15515;45.588;5.276;2022-07-30T09:05:03;6.03;;;1.85;;
28252;SDS011;15515;45.588;5.276;2022-07-30T09:07:32;1.95;;;1.80;;
28252;SDS011;15515;45.588;5.276;2022-07-30T09:10:01;6.88;;;1.90;;
28252;SDS011;15515;45.588;5.276;2022-07-30T09:12:40;3.72;;;1.63;;
28252;SDS011;15515;45.588;5.276;2022-07-30T09:15:16;4.40;;;2.00;;
28252;SDS011;15515;45.588;5.276;2022-07-30T09:17:58;5.18;;;1.85;;
28252;SDS011;15515;45.588;5.276;2022-07-30T09:20:31;4.18;;;2.22;;
28252;SDS011;15515;45.588;5.276;2022-07-30T09:23:05;7.35;;;2.97;;
28252;SDS011;15515;45.588;5.276;2022-07-30T09:28:34;6.25;;;2.38;;
28252;SDS011;15515;45.588;5.276;2022-07-30T09:31:13;7.60;;;2.00;;
28252;SDS011;15515;45.588;5.276;2022-07-30T09:34:00;4.85;;;2.70;;
28252;SDS011;15515;45.588;5.276;2022-07-30T09:37:01;6.75;;;2.83;;
28252;SDS011;15515;45.588;5.276;2022-07-30T09:40:09;5.28;;;2.58;;
28252;SDS011;15515;45.588;5.276;2022-07-30T09:43:15;2.60;;;1.63;;
28252;SDS011;15515;45.588;5.276;2022-07-30T09:45:54;2.72;;;2.10;;
28252;SDS011;15515;45.588;5.276;2022-07-30T09:48:24;4.28;;;1.88;;
28252;SDS011;15515;45.588;5.276;2022-07-30T09:50:53;3.70;;;1.83;;
28252;SDS011;15515;45.588;5.276;2022-07-30T09:53:21;4.95;;;1.80;;
28252;SDS011;15515;45.588;5.276;2022-07-30T09:55:49;3.90;;;1.90;;
28252;SDS011;15515;45.588;5.276;2022-07-30T09:58:16;4.63;;;1.98;;
28252;SDS011;15515;45.588;5.276;2022-07-30T10:00:44;6.35;;;2.08;;
28252;SDS011;15515;45.588;5.276;2022-07-30T10:03:23;3.90;;;2.03;;
28252;SDS011;15515;45.588;5.276;2022-07-30T10:06:10;2.08;;;1.42;;
28252;SDS011;15515;45.588;5.276;2022-07-30T10:08:47;4.50;;;1.63;;
28252;SDS011;15515;45.588;5.276;2022-07-30T10:11:21;3.03;;;1.33;;
28252;SDS011;15515;45.588;5.276;2022-07-30T10:13:55;3.92;;;1.92;;
28252;SDS011;15515;45.588;5.276;2022-07-30T10:16:25;6.85;;;1.83;;
28252;SDS011;15515;45.588;5.276;2022-07-30T10:18:55;5.15;;;1.50;;
28252;SDS011;15515;45.588;5.276;2022-07-30T10:22:01;3.97;;;1.67;;
28252;SDS011;15515;45.588;5.276;2022-07-30T10:24:55;5.32;;;1.48;;
28252;SDS011;15515;45.588;5.276;2022-07-30T10:27:41;4.22;;;1.40;;
28252;SDS011;15515;45.588;5.276;2022-07-30T10:30:21;6.20;;;1.88;;
28252;SDS011;15515;45.588;5.276;2022-07-30T10:32:48;2.15;;;1.30;;
28252;SDS011;15515;45.588;5.276;2022-07-30T10:35:16;3.05;;;2.58;;
28252;SDS011;15515;45.588;5.276;2022-07-30T10:37:44;5.50;;;3.35;;
28252;SDS011;15515;45.588;5.276;2022-07-30T10:40:35;3.90;;;2.63;;
28252;SDS011;15515;45.588;5.276;2022-07-30T10:43:12;4.13;;;1.60;;
28252;SDS011;15515;45.588;5.276;2022-07-30T10:48:34;1.75;;;1.42;;
28252;SDS011;15515;45.588;5.276;2022-07-30T10:51:01;4.03;;;1.55;;
28252;SDS011;15515;45.588;5.276;2022-07-30T10:53:34;3.15;;;1.38;;
28252;SDS011;15515;45.588;5.276;2022-07-30T10:56:15;3.30;;;1.60;;
28252;SDS011;15515;45.588;5.276;2022-07-30T11:01:23;2.45;;;1.30;;
28252;SDS011;15515;45.588;5.276;2022-07-30T11:06:43;2.72;;;1.40;;
28252;SDS011;15515;45.588;5.276;2022-07-30T11:12:00;3.13;;;1.80;;
28252;SDS011;15515;45.588;5.276;2022-07-30T11:17:13;2.03;;;1.60;;
28252;SDS011;15515;45.588;5.276;2022-07-30T11:22:31;3.97;;;3.25;;
28252;SDS011;15515;45.588;5.276;2022-07-30T11:25:07;1.55;;;1.42;;
28252;SDS011;15515;45.588;5.276;2022-07-30T11:27:37;5.70;;;1.40;;
28252;SDS011;15515;45.588;5.276;2022-07-30T11:30:05;4.07;;;1.30;;
28252;SDS011;15515;45.588;5.276;2022-07-30T11:32:55;3.65;;;2.53;;
28252;SDS011;15515;45.588;5.276;2022-07-30T11:35:43;4.68;;;1.27;;
28252;SDS011;15515;45.588;5.276;2022-07-30T11:38:48;1.70;;;1.52;;
28252;SDS011;15515;45.588;5.276;2022-07-30T11:41:26;2.00;;;1.38;;
28252;SDS011;15515;45.588;5.276;2022-07-30T11:46:56;2.78;;;1.17;;
28252;SDS011;15515;45.588;5.276;2022-07-30T11:49:24;5.72;;;1.90;;
28252;SDS011;15515;45.588;5.276;2022-07-30T11:51:51;1.90;;;1.45;;
28252;SDS011;15515;45.588;5.276;2022-07-30T11:54:18;2.25;;;1.10;;
28252;SDS011;15515;45.588;5.276;2022-07-30T11:56:52;4.28;;;1.30;;
28252;SDS011;15515;45.588;5.276;2022-07-30T11:59:26;3.78;;;1.60;;
28252;SDS011;15515;45.588;5.276;2022-07-30T12:01:53;4.63;;;2.10;;
28252;SDS011;15515;45.588;5.276;2022-07-30T12:04:26;3.85;;;2.10;;
28252;SDS011;15515;45.588;5.276;2022-07-30T12:06:54;5.18;;;1.70;;
28252;SDS011;15515;45.588;5.276;2022-07-30T12:09:22;3.17;;;1.60;;
28252;SDS011;15515;45.588;5.276;2022-07-30T12:14:21;3.28;;;1.65;;
28252;SDS011;15515;45.588;5.276;2022-07-30T12:16:49;4.03;;;1.20;;
28252;SDS011;15515;45.588;5.276;2022-07-30T12:19:17;2.55;;;1.40;;
28252;SDS011;15515;45.588;5.276;2022-07-30T12:21:45;2.47;;;1.27;;
28252;SDS011;15515;45.588;5.276;2022-07-30T12:24:14;3.47;;;1.02;;
28252;SDS011;15515;45.588;5.276;2022-07-30T12:26:41;2.80;;;1.13;;
28252;SDS011;15515;45.588;5.276;2022-07-30T12:29:09;1.45;;;1.13;;
28252;SDS011;15515;45.588;5.276;2022-07-30T12:31:39;2.17;;;1.10;;
28252;SDS011;15515;45.588;5.276;2022-07-30T12:34:20;3.35;;;1.30;;
28252;SDS011;15515;45.588;5.276;2022-07-30T12:36:48;3.13;;;1.60;;
28252;SDS011;15515;45.588;5.276;2022-07-30T12:39:22;5.53;;;1.70;;
28252;SDS011;15515;45.588;5.276;2022-07-30T12:41:51;3.80;;;1.80;;
28252;SDS011;15515;45.588;5.276;2022-07-30T12:44:40;2.13;;;1.27;;
28252;SDS011;15515;45.588;5.276;2022-07-30T12:47:23;2.25;;;1.75;;
28252;SDS011;15515;45.588;5.276;2022-07-30T12:49:52;3.58;;;1.85;;
28252;SDS011;15515;45.588;5.276;2022-07-30T12:52:33;7.70;;;1.90;;
28252;SDS011;15515;45.588;5.276;2022-07-30T13:00:20;3.17;;;1.30;;
28252;SDS011;15515;45.588;5.276;2022-07-30T13:02:57;1.85;;;1.20;;
28252;SDS011;15515;45.588;5.276;2022-07-30T13:05:44;2.80;;;1.17;;
28252;SDS011;15515;45.588;5.276;2022-07-30T13:08:12;3.13;;;1.00;;
28252;SDS011;15515;45.588;5.276;2022-07-30T13:10:52;3.97;;;2.05;;
28252;SDS011;15515;45.588;5.276;2022-07-30T13:13:20;3.08;;;2.47;;
28252;SDS011;15515;45.588;5.276;2022-07-30T13:16:01;1.55;;;1.17;;
28252;SDS011;15515;45.588;5.276;2022-07-30T13:18:29;4.05;;;2.22;;
28252;SDS011;15515;45.588;5.276;2022-07-30T13:20:58;4.88;;;2.85;;
28252;SDS011;15515;45.588;5.276;2022-07-30T13:23:27;3.22;;;1.60;;
28252;SDS011;15515;45.588;5.276;2022-07-30T13:25:55;1.95;;;1.58;;
28252;SDS011;15515;45.588;5.276;2022-07-30T13:28:23;3.58;;;1.80;;
28252;SDS011;15515;45.588;5.276;2022-07-30T13:30:50;3.97;;;1.65;;
28252;SDS011;15515;45.588;5.276;2022-07-30T13:33:18;4.65;;;2.10;;
28252;SDS011;15515;45.588;5.276;2022-07-30T13:35:45;1.40;;;1.30;;
28252;SDS011;15515;45.588;5.276;2022-07-30T13:38:12;2.50;;;1.23;;
28252;SDS011;15515;45.588;5.276;2022-07-30T13:40:39;2.63;;;1.13;;
28252;SDS011;15515;45.588;5.276;2022-07-30T13:43:07;2.60;;;1.23;;
28252;SDS011;15515;45.588;5.276;2022-07-30T13:45:34;2.42;;;1.20;;
28252;SDS011;15515;45.588;5.276;2022-07-30T13:48:02;1.55;;;1.10;;
28252;SDS011;15515;45.588;5.276;2022-07-30T13:50:29;5.72;;;2.30;;
28252;SDS011;15515;45.588;5.276;2022-07-30T13:52:56;3.92;;;2.25;;
28252;SDS011;15515;45.588;5.276;2022-07-30T13:55:26;5.78;;;2.70;;
28252;SDS011;15515;45.588;5.276;2022-07-30T13:57:53;4.20;;;1.80;;
28252;SDS011;15515;45.588;5.276;2022-07-30T14:00:21;1.48;;;1.30;;
28252;SDS011;15515;45.588;5.276;2022-07-30T14:02:49;3.22;;;1.38;;
28252;SDS011;15515;45.588;5.276;2022-07-30T14:05:16;2.28;;;1.40;;
28252;SDS011;15515;45.588;5.276;2022-07-30T14:07:43;4.65;;;1.27;;
28252;SDS011;15515;45.588;5.276;2022-07-30T14:10:10;3.83;;;1.38;;
28252;SDS011;15515;45.588;5.276;2022-07-30T14:12:37;9.27;;;7.93;;
28252;SDS011;15515;45.588;5.276;2022-07-30T14:15:05;4.63;;;4.22;;
28252;SDS011;15515;45.588;5.276;2022-07-30T14:17:34;6.45;;;5.95;;
28252;SDS011;15515;45.588;5.276;2022-07-30T14:20:01;2.20;;;1.30;;
28252;SDS011;15515;45.588;5.276;2022-07-30T14:22:29;6.55;;;4.70;;
28252;SDS011;15515;45.588;5.276;2022-07-30T14:24:56;5.68;;;2.75;;
28252;SDS011;15515;45.588;5.276;2022-07-30T14:27:25;3.40;;;1.35;;
28252;SDS011;15515;45.588;5.276;2022-07-30T14:29:52;6.22;;;2.28;;
28252;SDS011;15515;45.588;5.276;2022-07-30T14:32:19;3.63;;;3.33;;
28252;SDS011;15515;45.588;5.276;2022-07-30T14:34:46;4.13;;;1.95;;
28252;SDS011;15515;45.588;5.276;2022-07-30T14:37:13;2.63;;;1.98;;
28252;SDS011;15515;45.588;5.276;2022-07-30T14:39:42;3.22;;;1.27;;
28252;SDS011;15515;45.588;5.276;2022-07-30T14:42:09;4.72;;;1.92;;
28252;SDS011;15515;45.588;5.276;2022-07-30T14:44:36;3.38;;;1.40;;
28252;SDS011;15515;45.588;5.276;2022-07-30T14:47:03;3.55;;;1.33;;
28252;SDS011;15515;45.588;5.276;2022-07-30T14:49:31;4.45;;;3.60;;
28252;SDS011;15515;45.588;5.276;2022-07-30T14:51:58;3.33;;;2.17;;
28252;SDS011;15515;45.588;5.276;2022-07-30T14:54:26;1.67;;;1.30;;
28252;SDS011;15515;45.588;5.276;2022-07-30T14:56:53;2.85;;;1.10;;
28252;SDS011;15515;45.588;5.276;2022-07-30T14:59:23;0.80;;;0.80;;
28252;SDS011;15515;45.588;5.276;2022-07-30T15:01:53;1.40;;;1.20;;
28252;SDS011;15515;45.588;5.276;2022-07-30T15:04:20;5.28;;;2.25;;
28252;SDS011;15515;45.588;5.276;2022-07-30T15:06:48;3.10;;;1.42;;
28252;SDS011;15515;45.588;5.276;2022-07-30T15:09:15;2.42;;;1.70;;
28252;SDS011;15515;45.588;5.276;2022-07-30T15:11:42;3.63;;;1.52;;
28252;SDS011;15515;45.588;5.276;2022-07-30T15:14:28;3.65;;;1.50;;
28252;SDS011;15515;45.588;5.276;2022-07-30T15:16:56;3.33;;;1.50;;
28252;SDS011;15515;45.588;5.276;2022-07-30T15:19:27;4.45;;;1.42;;
28252;SDS011;15515;45.588;5.276;2022-07-30T15:21:54;2.40;;;1.45;;
28252;SDS011;15515;45.588;5.276;2022-07-30T15:24:21;2.67;;;1.30;;
28252;SDS011;15515;45.588;5.276;2022-07-30T15:26:48;1.60;;;1.30;;
28252;SDS011;15515;45.588;5.276;2022-07-30T15:29:15;2.30;;;0.80;;
28252;SDS011;15515;45.588;5.276;2022-07-30T15:31:42;2.63;;;1.13;;
28252;SDS011;15515;45.588;5.276;2022-07-30T15:34:09;5.05;;;1.15;;
28252;SDS011;15515;45.588;5.276;2022-07-30T15:36:37;3.95;;;1.00;;
28252;SDS011;15515;45.588;5.276;2022-07-30T15:39:04;4.95;;;0.90;;
28252;SDS011;15515;45.588;5.276;2022-07-30T15:41:32;7.93;;;1.13;;
28252;SDS011;15515;45.588;5.276;2022-07-30T15:43:59;2.97;;;1.48;;
28252;SDS011;15515;45.588;5.276;2022-07-30T15:46:26;2.45;;;1.10;;
28252;SDS011;15515;45.588;5.276;2022-07-30T15:48:53;3.47;;;2.30;;
28252;SDS011;15515;45.588;5.276;2022-07-30T15:51:20;1.67;;;1.20;;
28252;SDS011;15515;45.588;5.276;2022-07-30T15:53:48;1.30;;;1.20;;
28252;SDS011;15515;45.588;5.276;2022-07-30T15:56:15;1.83;;;1.25;;
28252;SDS011;15515;45.588;5.276;2022-07-30T15:58:42;1.52;;;1.00;;
28252;SDS011;15515;45.588;5.276;2022-07-30T16:01:09;5.53;;;2.45;;
28252;SDS011;15515;45.588;5.276;2022-07-30T16:03:36;2.33;;;1.90;;